sensor_id;sensor_type;location;lat;lon;timestamp;P1;durP1;ratioP1;P2;durP2;ratioP2
60352;SDS011;46196;52.970;6.954;2024-01-07T00:00:21;7.93;;;5.13;;
60352;SDS011;46196;52.970;6.954;2024-01-07T00:02:47;11.38;;;5.43;;
60352;SDS011;46196;52.970;6.954;2024-01-07T00:05:13;10.02;;;7.05;;
60352;SDS011;46196;52.970;6.954;2024-01-07T00:07:38;10.38;;;6.53;;
60352;SDS011;46196;52.970;6.954;2024-01-07T00:10:04;11.02;;;6.47;;
60352;SDS011;46196;52.970;6.954;2024-01-07T00:12:30;10.80;;;6.03;;
60352;SDS011;46196;52.970;6.954;2024-01-07T00:14:56;12.10;;;6.95;;
60352;SDS011;46196;52.970;6.954;2024-01-07T00:17:22;12.07;;;7.25;;
60352;SDS011;46196;52.970;6.954;2024-01-07T00:19:48;11.88;;;7.32;;
60352;SDS011;46196;52.970;6.954;2024-01-07T00:22:14;13.77;;;5.68;;
60352;SDS011;46196;52.970;6.954;2024-01-07T00:24:39;12.38;;;6.30;;
60352;SDS011;46196;52.970;6.954;2024-01-07T00:27:05;9.27;;;6.20;;
60352;SDS011;46196;52.970;6.954;2024-01-07T00:29:33;11.90;;;7.00;;
60352;SDS011;46196;52.970;6.954;2024-01-07T00:32:01;10.35;;;6.28;;
60352;SDS011;46196;52.970;6.954;2024-01-07T00:34:27;10.05;;;5.45;;
60352;SDS011;46196;52.970;6.954;2024-01-07T00:36:53;11.15;;;6.07;;
60352;SDS011;46196;52.970;6.954;2024-01-07T00:39:18;7.00;;;5.22;;
60352;SDS011;46196;52.970;6.954;2024-01-07T00:41:44;8.90;;;5.53;;
60352;SDS011;46196;52.970;6.954;2024-01-07T00:44:09;8.75;;;5.95;;
60352;SDS011;46196;52.970;6.954;2024-01-07T00:46:35;11.88;;;5.75;;
60352;SDS011;46196;52.970;6.954;2024-01-07T00:49:00;8.40;;;5.20;;
60352;SDS011;46196;52.970;6.954;2024-01-07T00:51:26;9.98;;;5.97;;
60352;SDS011;46196;52.970;6.954;2024-01-07T00:53:52;9.07;;;5.70;;
60352;SDS011;46196;52.970;6.954;2024-01-07T00:56:17;7.47;;;4.68;;
60352;SDS011;46196;52.970;6.954;2024-01-07T00:58:43;11.18;;;6.47;;
60352;SDS011;46196;52.970;6.954;2024-01-07T01:01:08;9.15;;;5.88;;
60352;SDS011;46196;52.970;6.954;2024-01-07T01:03:34;11.68;;;5.50;;
60352;SDS011;46196;52.970;6.954;2024-01-07T01:06:00;9.07;;;5.00;;
60352;SDS011;46196;52.970;6.954;2024-01-07T01:08:27;7.18;;;5.45;;
60352;SDS011;46196;52.970;6.954;2024-01-07T01:10:53;12.52;;;6.05;;
60352;SDS011;46196;52.970;6.954;2024-01-07T01:13:19;9.68;;;6.40;;
60352;SDS011;46196;52.970;6.954;2024-01-07T01:15:44;11.15;;;5.60;;
60352;SDS011;46196;52.970;6.954;2024-01-07T01:18:10;7.75;;;5.10;;
60352;SDS011;46196;52.970;6.954;2024-01-07T01:20:36;10.93;;;5.72;;
60352;SDS011;46196;52.970;6.954;2024-01-07T01:23:01;9.35;;;5.53;;
60352;SDS011;46196;52.970;6.954;2024-01-07T01:25:27;9.52;;;5.72;;
60352;SDS011;46196;52.970;6.954;2024-01-07T01:27:54;7.28;;;5.43;;
60352;SDS011;46196;52.970;6.954;2024-01-07T01:30:20;7.05;;;5.70;;
60352;SDS011;46196;52.970;6.954;2024-01-07T01:32:46;7.72;;;5.20;;
60352;SDS011;46196;52.970;6.954;2024-01-07T01:35:12;12.32;;;6.05;;
60352;SDS011;46196;52.970;6.954;2024-01-07T01:37:38;9.18;;;5.45;;
60352;SDS011;46196;52.970;6.954;2024-01-07T01:40:04;9.88;;;6.65;;
60352;SDS011;46196;52.970;6.954;2024-01-07T01:42:29;13.77;;;6.03;;
60352;SDS011;46196;52.970;6.954;2024-01-07T01:44:56;13.07;;;6.20;;
60352;SDS011;46196;52.970;6.954;2024-01-07T01:47:24;9.20;;;4.95;;
60352;SDS011;46196;52.970;6.954;2024-01-07T01:49:50;7.88;;;5.53;;
60352;SDS011;46196;52.970;6.954;2024-01-07T01:52:16;9.65;;;5.55;;
60352;SDS011;46196;52.970;6.954;2024-01-07T01:54:42;8.55;;;6.05;;
60352;SDS011;46196;52.970;6.954;2024-01-07T01:57:08;8.23;;;5.75;;
60352;SDS011;46196;52.970;6.954;2024-01-07T01:59:42;6.63;;;5.60;;
60352;SDS011;46196;52.970;6.954;2024-01-07T02:02:08;7.68;;;4.75;;
60352;SDS011;46196;52.970;6.954;2024-01-07T02:04:33;8.77;;;5.18;;
60352;SDS011;46196;52.970;6.954;2024-01-07T02:06:59;7.03;;;4.53;;
60352;SDS011;46196;52.970;6.954;2024-01-07T02:09:25;10.63;;;5.70;;
60352;SDS011;46196;52.970;6.954;2024-01-07T02:12:03;9.23;;;6.13;;
60352;SDS011;46196;52.970;6.954;2024-01-07T02:14:29;8.50;;;5.20;;
60352;SDS011;46196;52.970;6.954;2024-01-07T02:16:55;6.35;;;3.95;;
60352;SDS011;46196;52.970;6.954;2024-01-07T02:19:21;4.28;;;2.95;;
60352;SDS011;46196;52.970;6.954;2024-01-07T02:21:47;6.93;;;4.28;;
60352;SDS011;46196;52.970;6.954;2024-01-07T02:24:15;7.57;;;5.00;;
60352;SDS011;46196;52.970;6.954;2024-01-07T02:26:41;7.97;;;5.00;;
60352;SDS011;46196;52.970;6.954;2024-01-07T02:29:06;7.10;;;4.47;;
60352;SDS011;46196;52.970;6.954;2024-01-07T02:31:32;6.47;;;4.40;;
60352;SDS011;46196;52.970;6.954;2024-01-07T02:33:58;7.10;;;4.75;;
60352;SDS011;46196;52.970;6.954;2024-01-07T02:36:23;6.20;;;4.10;;
60352;SDS011;46196;52.970;6.954;2024-01-07T02:38:49;8.57;;;4.90;;
60352;SDS011;46196;52.970;6.954;2024-01-07T02:41:15;8.00;;;5.22;;
60352;SDS011;46196;52.970;6.954;2024-01-07T02:43:40;6.28;;;3.83;;
60352;SDS011;46196;52.970;6.954;2024-01-07T02:46:06;10.10;;;5.20;;
60352;SDS011;46196;52.970;6.954;2024-01-07T02:48:32;6.68;;;4.88;;
60352;SDS011;46196;52.970;6.954;2024-01-07T02:50:58;6.32;;;3.45;;
60352;SDS011;46196;52.970;6.954;2024-01-07T02:53:23;8.82;;;4.82;;
60352;SDS011;46196;52.970;6.954;2024-01-07T02:55:49;7.38;;;3.63;;
60352;SDS011;46196;52.970;6.954;2024-01-07T02:58:15;6.35;;;3.83;;
60352;SDS011;46196;52.970;6.954;2024-01-07T03:00:40;7.82;;;4.07;;
60352;SDS011;46196;52.970;6.954;2024-01-07T03:03:06;5.88;;;4.40;;
60352;SDS011;46196;52.970;6.954;2024-01-07T03:05:32;7.68;;;4.45;;
60352;SDS011;46196;52.970;6.954;2024-01-07T03:07:58;3.72;;;2.65;;
60352;SDS011;46196;52.970;6.954;2024-01-07T03:10:25;5.32;;;3.78;;
60352;SDS011;46196;52.970;6.954;2024-01-07T03:12:51;7.55;;;4.20;;
60352;SDS011;46196;52.970;6.954;2024-01-07T03:15:16;5.72;;;3.45;;
60352;SDS011;46196;52.970;6.954;2024-01-07T03:17:42;5.72;;;3.72;;
60352;SDS011;46196;52.970;6.954;2024-01-07T03:20:08;5.43;;;3.60;;
60352;SDS011;46196;52.970;6.954;2024-01-07T03:22:34;5.82;;;4.18;;
60352;SDS011;46196;52.970;6.954;2024-01-07T03:25:00;6.50;;;4.05;;
60352;SDS011;46196;52.970;6.954;2024-01-07T03:27:27;5.78;;;3.35;;
60352;SDS011;46196;52.970;6.954;2024-01-07T03:29:52;4.05;;;3.28;;
60352;SDS011;46196;52.970;6.954;2024-01-07T03:32:18;6.15;;;3.97;;
60352;SDS011;46196;52.970;6.954;2024-01-07T03:34:44;8.68;;;4.20;;
60352;SDS011;46196;52.970;6.954;2024-01-07T03:37:09;4.25;;;3.42;;
60352;SDS011;46196;52.970;6.954;2024-01-07T03:39:35;6.13;;;4.20;;
60352;SDS011;46196;52.970;6.954;2024-01-07T03:42:01;9.38;;;3.72;;
60352;SDS011;46196;52.970;6.954;2024-01-07T03:44:27;5.53;;;4.15;;
60352;SDS011;46196;52.970;6.954;2024-01-07T03:46:52;5.90;;;4.32;;
60352;SDS011;46196;52.970;6.954;2024-01-07T03:49:18;4.95;;;3.10;;
60352;SDS011;46196;52.970;6.954;2024-01-07T03:51:43;5.18;;;4.32;;
60352;SDS011;46196;52.970;6.954;2024-01-07T03:54:09;5.35;;;3.88;;
60352;SDS011;46196;52.970;6.954;2024-01-07T03:56:35;4.80;;;3.22;;
60352;SDS011;46196;52.970;6.954;2024-01-07T03:59:00;9.52;;;3.45;;
60352;SDS011;46196;52.970;6.954;2024-01-07T04:01:27;4.93;;;3.30;;
60352;SDS011;46196;52.970;6.954;2024-01-07T04:03:52;5.63;;;3.88;;
60352;SDS011;46196;52.970;6.954;2024-01-07T04:06:18;6.13;;;3.45;;
60352;SDS011;46196;52.970;6.954;2024-01-07T04:08:44;5.97;;;3.72;;
60352;SDS011;46196;52.970;6.954;2024-01-07T04:11:09;5.07;;;3.10;;
60352;SDS011;46196;52.970;6.954;2024-01-07T04:13:35;5.80;;;3.47;;
60352;SDS011;46196;52.970;6.954;2024-01-07T04:16:02;7.40;;;5.30;;
60352;SDS011;46196;52.970;6.954;2024-01-07T04:18:27;8.10;;;4.35;;
60352;SDS011;46196;52.970;6.954;2024-01-07T04:20:53;6.43;;;4.25;;
60352;SDS011;46196;52.970;6.954;2024-01-07T04:23:19;5.82;;;3.92;;
60352;SDS011;46196;52.970;6.954;2024-01-07T04:25:44;5.18;;;3.45;;
60352;SDS011;46196;52.970;6.954;2024-01-07T04:28:10;5.68;;;3.67;;
60352;SDS011;46196;52.970;6.954;2024-01-07T04:30:36;7.88;;;3.63;;
60352;SDS011;46196;52.970;6.954;2024-01-07T04:33:02;6.25;;;3.88;;
60352;SDS011;46196;52.970;6.954;2024-01-07T04:35:28;6.18;;;2.90;;
60352;SDS011;46196;52.970;6.954;2024-01-07T04:37:54;2.92;;;2.60;;
60352;SDS011;46196;52.970;6.954;2024-01-07T04:40:20;4.72;;;3.22;;
60352;SDS011;46196;52.970;6.954;2024-01-07T04:42:45;3.90;;;2.55;;
60352;SDS011;46196;52.970;6.954;2024-01-07T04:45:11;3.42;;;2.72;;
60352;SDS011;46196;52.970;6.954;2024-01-07T04:47:36;3.08;;;2.63;;
60352;SDS011;46196;52.970;6.954;2024-01-07T04:50:03;4.47;;;2.80;;
60352;SDS011;46196;52.970;6.954;2024-01-07T04:52:29;3.65;;;3.35;;
60352;SDS011;46196;52.970;6.954;2024-01-07T04:54:55;4.60;;;2.85;;
60352;SDS011;46196;52.970;6.954;2024-01-07T04:57:21;4.55;;;3.03;;
60352;SDS011;46196;52.970;6.954;2024-01-07T04:59:48;4.78;;;2.95;;
60352;SDS011;46196;52.970;6.954;2024-01-07T05:02:14;4.88;;;2.80;;
60352;SDS011;46196;52.970;6.954;2024-01-07T05:04:41;5.13;;;3.03;;
60352;SDS011;46196;52.970;6.954;2024-01-07T05:07:07;5.53;;;3.10;;
60352;SDS011;46196;52.970;6.954;2024-01-07T05:09:33;5.93;;;2.65;;
60352;SDS011;46196;52.970;6.954;2024-01-07T05:11:58;4.03;;;2.70;;
60352;SDS011;46196;52.970;6.954;2024-01-07T05:14:24;4.45;;;2.83;;
60352;SDS011;46196;52.970;6.954;2024-01-07T05:16:50;8.82;;;3.20;;
60352;SDS011;46196;52.970;6.954;2024-01-07T05:19:16;3.78;;;2.83;;
60352;SDS011;46196;52.970;6.954;2024-01-07T05:21:41;4.82;;;3.05;;
60352;SDS011;46196;52.970;6.954;2024-01-07T05:24:07;3.90;;;2.60;;
60352;SDS011;46196;52.970;6.954;2024-01-07T05:26:39;4.28;;;2.80;;
60352;SDS011;46196;52.970;6.954;2024-01-07T05:29:06;5.07;;;3.42;;
60352;SDS011;46196;52.970;6.954;2024-01-07T05:31:33;2.38;;;2.15;;
60352;SDS011;46196;52.970;6.954;2024-01-07T05:33:58;2.67;;;2.00;;
60352;SDS011;46196;52.970;6.954;2024-01-07T05:36:24;2.90;;;2.45;;
60352;SDS011;46196;52.970;6.954;2024-01-07T05:38:50;5.18;;;2.50;;
60352;SDS011;46196;52.970;6.954;2024-01-07T05:41:15;4.43;;;2.58;;
60352;SDS011;46196;52.970;6.954;2024-01-07T05:43:41;3.72;;;2.22;;
60352;SDS011;46196;52.970;6.954;2024-01-07T05:46:06;5.22;;;2.30;;
60352;SDS011;46196;52.970;6.954;2024-01-07T05:48:42;2.85;;;2.40;;
60352;SDS011;46196;52.970;6.954;2024-01-07T05:51:09;4.57;;;4.03;;
60352;SDS011;46196;52.970;6.954;2024-01-07T05:53:35;5.30;;;3.05;;
60352;SDS011;46196;52.970;6.954;2024-01-07T05:56:01;4.90;;;2.83;;
60352;SDS011;46196;52.970;6.954;2024-01-07T05:58:27;3.17;;;2.40;;
60352;SDS011;46196;52.970;6.954;2024-01-07T06:00:53;4.25;;;2.58;;
60352;SDS011;46196;52.970;6.954;2024-01-07T06:03:19;3.47;;;2.28;;
60352;SDS011;46196;52.970;6.954;2024-01-07T06:05:45;3.17;;;2.28;;
60352;SDS011;46196;52.970;6.954;2024-01-07T06:08:11;6.18;;;2.22;;
60352;SDS011;46196;52.970;6.954;2024-01-07T06:10:38;1.95;;;1.83;;
60352;SDS011;46196;52.970;6.954;2024-01-07T06:13:04;3.08;;;2.40;;
60352;SDS011;46196;52.970;6.954;2024-01-07T06:15:30;2.53;;;2.15;;
60352;SDS011;46196;52.970;6.954;2024-01-07T06:17:56;3.22;;;2.47;;
60352;SDS011;46196;52.970;6.954;2024-01-07T06:20:22;2.53;;;2.17;;
60352;SDS011;46196;52.970;6.954;2024-01-07T06:22:48;2.80;;;2.30;;
60352;SDS011;46196;52.970;6.954;2024-01-07T06:25:15;1.90;;;1.70;;
60352;SDS011;46196;52.970;6.954;2024-01-07T06:27:41;2.60;;;2.22;;
60352;SDS011;46196;52.970;6.954;2024-01-07T06:30:07;4.07;;;2.33;;
60352;SDS011;46196;52.970;6.954;2024-01-07T06:32:34;2.50;;;2.05;;
60352;SDS011;46196;52.970;6.954;2024-01-07T06:35:00;6.63;;;2.30;;
60352;SDS011;46196;52.970;6.954;2024-01-07T06:37:28;5.78;;;2.80;;
60352;SDS011;46196;52.970;6.954;2024-01-07T06:39:57;3.15;;;2.63;;
60352;SDS011;46196;52.970;6.954;2024-01-07T06:42:24;3.65;;;3.08;;
60352;SDS011;46196;52.970;6.954;2024-01-07T06:44:50;3.10;;;2.50;;
60352;SDS011;46196;52.970;6.954;2024-01-07T06:47:16;2.92;;;2.33;;
60352;SDS011;46196;52.970;6.954;2024-01-07T06:49:42;2.58;;;2.22;;
60352;SDS011;46196;52.970;6.954;2024-01-07T06:52:08;2.63;;;2.25;;
60352;SDS011;46196;52.970;6.954;2024-01-07T06:54:34;3.92;;;2.42;;
60352;SDS011;46196;52.970;6.954;2024-01-07T06:57:00;3.60;;;2.40;;
60352;SDS011;46196;52.970;6.954;2024-01-07T06:59:26;4.10;;;2.42;;
60352;SDS011;46196;52.970;6.954;2024-01-07T07:01:52;2.47;;;2.10;;
60352;SDS011;46196;52.970;6.954;2024-01-07T07:04:20;3.90;;;2.05;;
60352;SDS011;46196;52.970;6.954;2024-01-07T07:06:46;2.60;;;2.20;;
60352;SDS011;46196;52.970;6.954;2024-01-07T07:09:12;2.20;;;2.00;;
60352;SDS011;46196;52.970;6.954;2024-01-07T07:11:40;4.03;;;2.25;;
60352;SDS011;46196;52.970;6.954;2024-01-07T07:14:06;2.47;;;2.28;;
60352;SDS011;46196;52.970;6.954;2024-01-07T07:16:33;2.70;;;2.22;;
60352;SDS011;46196;52.970;6.954;2024-01-07T07:18:59;2.33;;;2.10;;
60352;SDS011;46196;52.970;6.954;2024-01-07T07:21:25;8.52;;;3.60;;
60352;SDS011;46196;52.970;6.954;2024-01-07T07:23:52;3.00;;;2.67;;
60352;SDS011;46196;52.970;6.954;2024-01-07T07:26:18;6.60;;;2.70;;
60352;SDS011;46196;52.970;6.954;2024-01-07T07:28:44;4.35;;;2.92;;
60352;SDS011;46196;52.970;6.954;2024-01-07T07:31:10;5.40;;;2.80;;
60352;SDS011;46196;52.970;6.954;2024-01-07T07:33:38;3.58;;;2.58;;
60352;SDS011;46196;52.970;6.954;2024-01-07T07:36:05;4.03;;;2.50;;
60352;SDS011;46196;52.970;6.954;2024-01-07T07:38:31;3.55;;;2.80;;
60352;SDS011;46196;52.970;6.954;2024-01-07T07:40:57;4.90;;;3.10;;
60352;SDS011;46196;52.970;6.954;2024-01-07T07:43:24;4.75;;;2.90;;
60352;SDS011;46196;52.970;6.954;2024-01-07T07:45:50;3.80;;;2.55;;
60352;SDS011;46196;52.970;6.954;2024-01-07T07:48:16;4.60;;;3.00;;
60352;SDS011;46196;52.970;6.954;2024-01-07T07:50:42;5.90;;;3.42;;
60352;SDS011;46196;52.970;6.954;2024-01-07T07:53:08;3.30;;;2.50;;
60352;SDS011;46196;52.970;6.954;2024-01-07T07:55:34;4.80;;;2.50;;
60352;SDS011;46196;52.970;6.954;2024-01-07T07:58:00;4.07;;;2.80;;
60352;SDS011;46196;52.970;6.954;2024-01-07T08:00:25;5.18;;;3.20;;
60352;SDS011;46196;52.970;6.954;2024-01-07T08:02:51;4.82;;;2.70;;
60352;SDS011;46196;52.970;6.954;2024-01-07T08:05:17;5.65;;;3.03;;
60352;SDS011;46196;52.970;6.954;2024-01-07T08:07:43;4.07;;;2.92;;
60352;SDS011;46196;52.970;6.954;2024-01-07T08:10:09;4.35;;;3.03;;
60352;SDS011;46196;52.970;6.954;2024-01-07T08:12:34;4.88;;;2.55;;
60352;SDS011;46196;52.970;6.954;2024-01-07T08:15:00;5.00;;;2.72;;
60352;SDS011;46196;52.970;6.954;2024-01-07T08:17:27;4.22;;;3.05;;
60352;SDS011;46196;52.970;6.954;2024-01-07T08:19:53;4.55;;;2.90;;
60352;SDS011;46196;52.970;6.954;2024-01-07T08:22:19;7.10;;;2.50;;
60352;SDS011;46196;52.970;6.954;2024-01-07T08:24:45;4.63;;;3.22;;
60352;SDS011;46196;52.970;6.954;2024-01-07T08:27:11;4.22;;;2.80;;
60352;SDS011;46196;52.970;6.954;2024-01-07T08:29:37;3.88;;;2.92;;
60352;SDS011;46196;52.970;6.954;2024-01-07T08:32:03;4.28;;;2.60;;
60352;SDS011;46196;52.970;6.954;2024-01-07T08:34:30;4.07;;;2.95;;
60352;SDS011;46196;52.970;6.954;2024-01-07T08:36:56;6.30;;;2.85;;
60352;SDS011;46196;52.970;6.954;2024-01-07T08:39:22;5.13;;;3.00;;
60352;SDS011;46196;52.970;6.954;2024-01-07T08:41:48;4.28;;;2.53;;
60352;SDS011;46196;52.970;6.954;2024-01-07T08:44:14;4.10;;;2.80;;
60352;SDS011;46196;52.970;6.954;2024-01-07T08:46:40;3.22;;;2.47;;
60352;SDS011;46196;52.970;6.954;2024-01-07T08:49:06;3.97;;;3.15;;
60352;SDS011;46196;52.970;6.954;2024-01-07T08:51:32;5.55;;;3.20;;
60352;SDS011;46196;52.970;6.954;2024-01-07T08:53:58;4.75;;;2.63;;
60352;SDS011;46196;52.970;6.954;2024-01-07T08:56:24;5.75;;;2.90;;
60352;SDS011;46196;52.970;6.954;2024-01-07T08:58:51;4.20;;;2.85;;
60352;SDS011;46196;52.970;6.954;2024-01-07T09:01:17;3.47;;;2.70;;
60352;SDS011;46196;52.970;6.954;2024-01-07T09:03:43;5.18;;;2.47;;
60352;SDS011;46196;52.970;6.954;2024-01-07T09:06:09;4.18;;;2.60;;
60352;SDS011;46196;52.970;6.954;2024-01-07T09:08:35;4.80;;;3.03;;
60352;SDS011;46196;52.970;6.954;2024-01-07T09:11:03;5.90;;;2.83;;
60352;SDS011;46196;52.970;6.954;2024-01-07T09:15:57;3.70;;;2.38;;
60352;SDS011;46196;52.970;6.954;2024-01-07T09:18:23;2.60;;;2.40;;
60352;SDS011;46196;52.970;6.954;2024-01-07T09:20:49;4.07;;;2.63;;
60352;SDS011;46196;52.970;6.954;2024-01-07T09:23:15;4.30;;;2.47;;
60352;SDS011;46196;52.970;6.954;2024-01-07T09:25:41;4.28;;;2.60;;
60352;SDS011;46196;52.970;6.954;2024-01-07T09:28:08;5.60;;;2.35;;
60352;SDS011;46196;52.970;6.954;2024-01-07T09:30:34;4.40;;;2.40;;
60352;SDS011;46196;52.970;6.954;2024-01-07T09:33:00;4.10;;;2.50;;
60352;SDS011;46196;52.970;6.954;2024-01-07T09:35:26;4.65;;;2.47;;
60352;SDS011;46196;52.970;6.954;2024-01-07T09:37:52;3.33;;;2.42;;
60352;SDS011;46196;52.970;6.954;2024-01-07T09:40:19;4.25;;;2.80;;
60352;SDS011;46196;52.970;6.954;2024-01-07T09:42:45;6.10;;;3.78;;
60352;SDS011;46196;52.970;6.954;2024-01-07T09:45:12;3.53;;;2.92;;
60352;SDS011;46196;52.970;6.954;2024-01-07T09:47:41;5.40;;;2.90;;
60352;SDS011;46196;52.970;6.954;2024-01-07T09:50:09;3.78;;;2.75;;
60352;SDS011;46196;52.970;6.954;2024-01-07T09:52:35;5.78;;;3.20;;
60352;SDS011;46196;52.970;6.954;2024-01-07T09:55:02;4.22;;;2.88;;
60352;SDS011;46196;52.970;6.954;2024-01-07T09:57:29;5.70;;;3.10;;
60352;SDS011;46196;52.970;6.954;2024-01-07T09:59:55;6.40;;;3.13;;
60352;SDS011;46196;52.970;6.954;2024-01-07T10:02:21;4.28;;;2.70;;
60352;SDS011;46196;52.970;6.954;2024-01-07T10:04:48;6.10;;;2.80;;
60352;SDS011;46196;52.970;6.954;2024-01-07T10:07:15;4.50;;;2.80;;
60352;SDS011;46196;52.970;6.954;2024-01-07T10:09:42;5.80;;;2.88;;
60352;SDS011;46196;52.970;6.954;2024-01-07T10:12:09;5.50;;;3.10;;
60352;SDS011;46196;52.970;6.954;2024-01-07T10:14:35;5.28;;;2.90;;
60352;SDS011;46196;52.970;6.954;2024-01-07T10:17:01;6.07;;;3.28;;
60352;SDS011;46196;52.970;6.954;2024-01-07T10:19:27;5.03;;;3.35;;
60352;SDS011;46196;52.970;6.954;2024-01-07T10:24:26;5.68;;;3.40;;
60352;SDS011;46196;52.970;6.954;2024-01-07T10:26:52;4.50;;;3.20;;
60352;SDS011;46196;52.970;6.954;2024-01-07T10:29:18;4.50;;;2.90;;
60352;SDS011;46196;52.970;6.954;2024-01-07T10:31:45;7.45;;;3.55;;
60352;SDS011;46196;52.970;6.954;2024-01-07T10:34:12;5.57;;;3.30;;
60352;SDS011;46196;52.970;6.954;2024-01-07T10:36:39;6.20;;;2.92;;
60352;SDS011;46196;52.970;6.954;2024-01-07T10:39:05;5.00;;;3.28;;
60352;SDS011;46196;52.970;6.954;2024-01-07T10:41:32;5.47;;;2.85;;
60352;SDS011;46196;52.970;6.954;2024-01-07T10:43:59;5.78;;;2.63;;
60352;SDS011;46196;52.970;6.954;2024-01-07T10:46:25;5.95;;;2.70;;
60352;SDS011;46196;52.970;6.954;2024-01-07T10:48:55;3.67;;;2.72;;
60352;SDS011;46196;52.970;6.954;2024-01-07T10:51:24;4.22;;;2.88;;
60352;SDS011;46196;52.970;6.954;2024-01-07T10:53:53;4.90;;;2.58;;
60352;SDS011;46196;52.970;6.954;2024-01-07T10:56:24;4.72;;;2.53;;
60352;SDS011;46196;52.970;6.954;2024-01-07T10:58:51;4.03;;;2.60;;
60352;SDS011;46196;52.970;6.954;2024-01-07T11:01:18;4.50;;;2.80;;
60352;SDS011;46196;52.970;6.954;2024-01-07T11:03:51;3.85;;;2.65;;
60352;SDS011;46196;52.970;6.954;2024-01-07T11:06:31;3.35;;;2.50;;
60352;SDS011;46196;52.970;6.954;2024-01-07T11:09:02;6.40;;;2.50;;
60352;SDS011;46196;52.970;6.954;2024-01-07T11:11:35;6.43;;;3.15;;
60352;SDS011;46196;52.970;6.954;2024-01-07T11:14:02;3.47;;;2.78;;
60352;SDS011;46196;52.970;6.954;2024-01-07T11:16:41;6.90;;;3.13;;
60352;SDS011;46196;52.970;6.954;2024-01-07T11:19:08;4.05;;;2.70;;
60352;SDS011;46196;52.970;6.954;2024-01-07T11:21:34;5.15;;;2.80;;
60352;SDS011;46196;52.970;6.954;2024-01-07T11:24:01;5.65;;;3.20;;
60352;SDS011;46196;52.970;6.954;2024-01-07T11:26:30;6.50;;;3.42;;
60352;SDS011;46196;52.970;6.954;2024-01-07T11:28:57;4.85;;;3.25;;
60352;SDS011;46196;52.970;6.954;2024-01-07T11:34:04;4.43;;;3.45;;
60352;SDS011;46196;52.970;6.954;2024-01-07T11:36:31;4.50;;;3.25;;
60352;SDS011;46196;52.970;6.954;2024-01-07T11:39:00;8.95;;;4.00;;
60352;SDS011;46196;52.970;6.954;2024-01-07T11:41:27;4.72;;;2.90;;
60352;SDS011;46196;52.970;6.954;2024-01-07T11:43:58;5.07;;;3.67;;
60352;SDS011;46196;52.970;6.954;2024-01-07T11:46:25;7.15;;;3.42;;
60352;SDS011;46196;52.970;6.954;2024-01-07T11:48:54;7.18;;;3.95;;
60352;SDS011;46196;52.970;6.954;2024-01-07T11:51:30;5.72;;;3.53;;
60352;SDS011;46196;52.970;6.954;2024-01-07T11:53:57;7.88;;;4.20;;
60352;SDS011;46196;52.970;6.954;2024-01-07T11:56:26;7.63;;;4.00;;
60352;SDS011;46196;52.970;6.954;2024-01-07T11:58:52;5.70;;;4.00;;
60352;SDS011;46196;52.970;6.954;2024-01-07T12:01:18;12.15;;;4.97;;
60352;SDS011;46196;52.970;6.954;2024-01-07T12:03:45;8.95;;;4.95;;
60352;SDS011;46196;52.970;6.954;2024-01-07T12:06:11;7.38;;;4.20;;
60352;SDS011;46196;52.970;6.954;2024-01-07T12:08:43;6.60;;;3.90;;
60352;SDS011;46196;52.970;6.954;2024-01-07T12:11:11;7.70;;;4.00;;
60352;SDS011;46196;52.970;6.954;2024-01-07T12:13:37;7.38;;;5.00;;
60352;SDS011;46196;52.970;6.954;2024-01-07T12:16:04;7.55;;;5.10;;
60352;SDS011;46196;52.970;6.954;2024-01-07T12:18:30;7.40;;;4.40;;
60352;SDS011;46196;52.970;6.954;2024-01-07T12:20:57;11.13;;;4.53;;
60352;SDS011;46196;52.970;6.954;2024-01-07T12:23:28;8.93;;;4.78;;
60352;SDS011;46196;52.970;6.954;2024-01-07T12:25:54;6.47;;;3.92;;
60352;SDS011;46196;52.970;6.954;2024-01-07T12:28:23;6.88;;;4.50;;
60352;SDS011;46196;52.970;6.954;2024-01-07T12:30:49;7.43;;;4.50;;
60352;SDS011;46196;52.970;6.954;2024-01-07T12:33:24;8.98;;;4.72;;
60352;SDS011;46196;52.970;6.954;2024-01-07T12:35:51;8.32;;;5.32;;
60352;SDS011;46196;52.970;6.954;2024-01-07T12:38:23;7.00;;;5.00;;
60352;SDS011;46196;52.970;6.954;2024-01-07T12:40:49;5.97;;;3.85;;
60352;SDS011;46196;52.970;6.954;2024-01-07T12:43:15;9.10;;;4.75;;
60352;SDS011;46196;52.970;6.954;2024-01-07T12:45:41;7.50;;;5.28;;
60352;SDS011;46196;52.970;6.954;2024-01-07T12:48:07;9.25;;;4.43;;
60352;SDS011;46196;52.970;6.954;2024-01-07T12:50:33;7.25;;;4.70;;
60352;SDS011;46196;52.970;6.954;2024-01-07T12:52:59;9.30;;;4.30;;
60352;SDS011;46196;52.970;6.954;2024-01-07T12:55:26;7.93;;;4.30;;
60352;SDS011;46196;52.970;6.954;2024-01-07T12:57:52;6.20;;;4.35;;
60352;SDS011;46196;52.970;6.954;2024-01-07T13:00:19;6.32;;;4.03;;
60352;SDS011;46196;52.970;6.954;2024-01-07T13:02:45;5.65;;;4.05;;
60352;SDS011;46196;52.970;6.954;2024-01-07T13:05:12;7.47;;;4.50;;
60352;SDS011;46196;52.970;6.954;2024-01-07T13:07:38;6.68;;;4.13;;
60352;SDS011;46196;52.970;6.954;2024-01-07T13:10:04;6.78;;;4.03;;
60352;SDS011;46196;52.970;6.954;2024-01-07T13:12:31;10.55;;;4.28;;
60352;SDS011;46196;52.970;6.954;2024-01-07T13:14:58;6.80;;;4.13;;
60352;SDS011;46196;52.970;6.954;2024-01-07T13:17:24;7.75;;;4.93;;
60352;SDS011;46196;52.970;6.954;2024-01-07T13:19:50;7.63;;;4.47;;
60352;SDS011;46196;52.970;6.954;2024-01-07T13:22:16;6.57;;;4.40;;
60352;SDS011;46196;52.970;6.954;2024-01-07T13:24:42;6.07;;;4.32;;
60352;SDS011;46196;52.970;6.954;2024-01-07T13:27:08;10.63;;;4.72;;
60352;SDS011;46196;52.970;6.954;2024-01-07T13:29:34;9.43;;;4.60;;
60352;SDS011;46196;52.970;6.954;2024-01-07T13:32:00;7.13;;;4.32;;
60352;SDS011;46196;52.970;6.954;2024-01-07T13:34:27;10.82;;;4.82;;
60352;SDS011;46196;52.970;6.954;2024-01-07T13:36:53;7.88;;;4.35;;
60352;SDS011;46196;52.970;6.954;2024-01-07T13:39:19;7.97;;;4.93;;
60352;SDS011;46196;52.970;6.954;2024-01-07T13:41:46;7.85;;;4.90;;
60352;SDS011;46196;52.970;6.954;2024-01-07T13:44:13;12.38;;;4.75;;
60352;SDS011;46196;52.970;6.954;2024-01-07T13:46:45;8.68;;;4.97;;
60352;SDS011;46196;52.970;6.954;2024-01-07T13:49:12;10.30;;;4.88;;
60352;SDS011;46196;52.970;6.954;2024-01-07T13:51:39;6.97;;;4.80;;
60352;SDS011;46196;52.970;6.954;2024-01-07T13:54:05;7.50;;;4.05;;
60352;SDS011;46196;52.970;6.954;2024-01-07T13:56:32;10.25;;;4.50;;
60352;SDS011;46196;52.970;6.954;2024-01-07T13:59:01;7.55;;;4.43;;
60352;SDS011;46196;52.970;6.954;2024-01-07T14:01:28;7.60;;;4.72;;
60352;SDS011;46196;52.970;6.954;2024-01-07T14:03:54;6.10;;;4.00;;
60352;SDS011;46196;52.970;6.954;2024-01-07T14:06:21;8.75;;;5.13;;
60352;SDS011;46196;52.970;6.954;2024-01-07T14:08:48;8.20;;;4.88;;
60352;SDS011;46196;52.970;6.954;2024-01-07T14:11:14;8.57;;;4.97;;
60352;SDS011;46196;52.970;6.954;2024-01-07T14:13:40;8.23;;;5.28;;
60352;SDS011;46196;52.970;6.954;2024-01-07T14:16:09;7.07;;;3.83;;
60352;SDS011;46196;52.970;6.954;2024-01-07T14:18:35;5.75;;;4.20;;
60352;SDS011;46196;52.970;6.954;2024-01-07T14:21:01;6.50;;;4.28;;
60352;SDS011;46196;52.970;6.954;2024-01-07T14:23:28;6.82;;;5.03;;
60352;SDS011;46196;52.970;6.954;2024-01-07T14:25:56;9.85;;;4.20;;
60352;SDS011;46196;52.970;6.954;2024-01-07T14:28:22;7.85;;;4.78;;
60352;SDS011;46196;52.970;6.954;2024-01-07T14:30:48;7.90;;;3.97;;
60352;SDS011;46196;52.970;6.954;2024-01-07T14:33:14;6.32;;;4.15;;
60352;SDS011;46196;52.970;6.954;2024-01-07T14:35:40;8.95;;;4.60;;
60352;SDS011;46196;52.970;6.954;2024-01-07T14:38:06;7.32;;;4.70;;
60352;SDS011;46196;52.970;6.954;2024-01-07T14:40:32;9.13;;;4.50;;
60352;SDS011;46196;52.970;6.954;2024-01-07T14:42:58;10.48;;;4.88;;
60352;SDS011;46196;52.970;6.954;2024-01-07T14:45:25;5.78;;;4.22;;
60352;SDS011;46196;52.970;6.954;2024-01-07T14:47:51;9.70;;;5.25;;